Time,TemperatureF,DewpointF,PressureIn,WindDirection,WindDirectionDegrees,WindSpeedMPH,WindSpeedGustMPH,Humidity,HourlyPrecipIn,Conditions,Clouds,dailyrainin,SoftwareType,DateUTC
2013-08-24 00:00:00,59.9,53.7,29.79,SE,135,0.0,0.0,80,0.00,CLR,,0.00,WeatherDisplay:10.37,2013-08-24 07:00:00,
2013-08-24 00:05:00,60.1,53.9,29.79,SE,135,0.0,0.0,80,0.00,CLR,,0.00,WeatherDisplay:10.37,2013-08-24 07:05:00,
2013-08-24 00:10:00,59.9,53.7,29.79,SE,135,0.0,0.0,80,0.00,CLR,,0.00,WeatherDisplay:10.37,2013-08-24 07:10:00,
2013-08-24 00:15:00,59.9,53.7,29.79,SE,135,0.0,0.0,80,0.00,CLR,,0.00,WeatherDisplay:10.37,2013-08-24 07:15:00,
2013-08-24 00:20:00,59.9,53.7,29.79,SE,135,0.0,0.0,80,0.00,CLR,,0.00,WeatherDisplay:10.37,2013-08-24 07:20:00,
2013-08-24 00:25:00,60.1,53.9,29.80,SE,135,0.0,0.0,80,0.00,CLR,,0.00,WeatherDisplay:10.37,2013-08-24 07:25:00,
2013-08-24 00:30:00,60.1,54.2,29.79,SE,135,0.0,0.0,81,0.00,CLR,,0.00,WeatherDisplay:10.37,2013-08-24 07:30:00,
2013-08-24 00:35:00,60.1,54.2,29.80,SE,135,0.0,0.0,81,0.00,CLR,,0.00,WeatherDisplay:10.37,2013-08-24 07:35:00,
2013-08-24 00:40:00,60.3,54.4,29.80,SE,135,0.0,0.0,81,0.00,CLR,,0.00,WeatherDisplay:10.37,2013-08-24 07:40:00,
2013-08-24 00:45:00,60.3,54.4,29.80,SE,135,0.0,0.0,81,0.00,CLR,,0.00,WeatherDisplay:10.37,2013-08-24 07:45:00,
2013-08-24 00:50:00,60.1,54.2,29.80,SE,135,0.0,0.0,81,0.00,CLR,,0.00,WeatherDisplay:10.37,2013-08-24 07:50:00,
2013-08-24 00:55:00,60.1,54.2,29.80,SE,135,0.0,0.0,81,0.00,CLR,,0.00,WeatherDisplay:10.37,2013-08-24 07:55:00,
2013-08-24 01:00:00,60.1,54.2,29.80,SE,135,0.0,0.0,81,0.00,CLR,,0.00,WeatherDisplay:10.37,2013-08-24 08:00:00,
2013-08-24 01:05:00,60.1,54.2,29.80,SE,135,0.0,0.0,81,0.00,CLR,,0.00,WeatherDisplay:10.37,2013-08-24 08:05:00,
2013-08-24 01:10:00,60.3,54.4,29.80,SE,135,0.0,0.0,81,0.00,CLR,,0.00,WeatherDisplay:10.37,2013-08-24 08:10:00,
2013-08-24 01:15:00,60.4,54.6,29.80,SE,135,0.0,0.0,81,0.00,CLR,,0.00,WeatherDisplay:10.37,2013-08-24 08:15:00,
2013-08-24 01:20:00,60.4,54.6,29.80,SE,135,0.0,0.0,81,0.00,CLR,,0.00,WeatherDisplay:10.37,2013-08-24 08:20:00,
2013-08-24 01:25:00,60.4,54.6,29.79,SE,135,0.0,0.0,81,0.00,CLR,,0.00,WeatherDisplay:10.37,2013-08-24 08:25:00,
2013-08-24 01:30:00,60.6,54.8,29.79,SE,135,0.0,0.0,81,0.00,CLR,,0.00,WeatherDisplay:10.37,2013-08-24 08:30:00,
2013-08-24 01:35:00,60.6,54.8,29.79,SE,135,0.0,0.0,81,0.00,CLR,,0.00,WeatherDisplay:10.37,2013-08-24 08:35:00,
2013-08-24 01:40:00,60.6,54.8,29.79,SE,135,0.0,0.0,81,0.00,CLR,,0.00,WeatherDisplay:10.37,2013-08-24 08:40:00,
2013-08-24 01:45:00,60.6,54.8,29.80,SE,135,0.0,0.0,81,0.00,CLR,,0.00,WeatherDisplay:10.37,2013-08-24 08:45:00,
2013-08-24 01:50:00,60.6,54.8,29.80,SE,135,0.0,0.0,81,0.00,CLR,,0.00,WeatherDisplay:10.37,2013-08-24 08:50:00,
2013-08-24 01:55:00,60.6,54.8,29.80,SE,135,0.0,0.0,81,0.00,CLR,,0.00,WeatherDisplay:10.37,2013-08-24 08:55:00,
2013-08-24 02:00:00,60.6,54.8,29.80,SE,135,0.0,0.0,81,0.00,CLR,,0.00,WeatherDisplay:10.37,2013-08-24 09:00:00,
2013-08-24 02:05:00,60.6,54.8,29.80,SE,135,0.0,0.0,81,0.00,CLR,,0.00,WeatherDisplay:10.37,2013-08-24 09:05:00,
2013-08-24 02:10:00,60.6,54.8,29.80,SE,135,0.0,0.0,81,0.00,CLR,,0.00,WeatherDisplay:10.37,2013-08-24 09:10:00,
2013-08-24 02:15:00,60.6,54.8,29.80,SE,135,0.0,0.0,81,0.00,CLR,,0.00,WeatherDisplay:10.37,2013-08-24 09:15:00,
2013-08-24 02:20:00,60.6,54.8,29.80,SE,135,0.0,0.0,81,0.00,CLR,,0.00,WeatherDisplay:10.37,2013-08-24 09:20:00,
2013-08-24 02:25:00,60.6,54.8,29.80,SE,135,0.0,0.0,81,0.00,CLR,,0.00,WeatherDisplay:10.37,2013-08-24 09:25:00,
2013-08-24 02:30:00,60.6,54.8,29.80,SE,135,0.0,0.0,81,0.00,CLR,,0.00,WeatherDisplay:10.37,2013-08-24 09:30:00,
2013-08-24 02:35:00,60.6,54.8,29.80,SE,135,0.0,0.0,81,0.00,CLR,,0.00,WeatherDisplay:10.37,2013-08-24 09:35:00,
2013-08-24 02:40:00,60.6,54.8,29.80,SE,135,0.0,0.0,81,0.00,CLR,,0.00,WeatherDisplay:10.37,2013-08-24 09:40:00,
2013-08-24 02:45:00,60.6,55.1,29.80,SE,135,0.0,0.0,82,0.00,CLR,,0.00,WeatherDisplay:10.37,2013-08-24 09:45:00,
2013-08-24 02:50:00,60.6,55.1,29.80,SE,135,0.0,0.0,82,0.00,CLR,,0.00,WeatherDisplay:10.37,2013-08-24 09:50:00,
2013-08-24 02:55:00,60.6,54.8,29.80,SE,135,0.0,0.0,81,0.00,CLR,,0.00,WeatherDisplay:10.37,2013-08-24 09:55:00,
2013-08-24 03:00:00,60.6,54.8,29.80,SE,135,0.0,0.0,81,0.00,CLR,,0.00,WeatherDisplay:10.37,2013-08-24 10:00:00,
2013-08-24 03:05:00,60.6,55.1,29.80,SE,135,0.0,0.0,82,0.00,CLR,,0.00,WeatherDisplay:10.37,2013-08-24 10:05:00,
2013-08-24 03:10:00,60.6,55.1,29.80,SE,135,0.0,0.0,82,0.00,CLR,,0.00,WeatherDisplay:10.37,2013-08-24 10:10:00,
2013-08-24 03:15:00,60.6,54.8,29.80,SE,135,0.0,0.0,81,0.00,CLR,,0.00,WeatherDisplay:10.37,2013-08-24 10:15:00,
2013-08-24 03:20:00,60.6,55.1,29.80,SE,135,0.0,0.0,82,0.00,CLR,,0.00,WeatherDisplay:10.37,2013-08-24 10:20:00,
2013-08-24 03:25:00,60.6,54.8,29.80,SE,135,0.0,0.0,81,0.00,CLR,,0.00,WeatherDisplay:10.37,2013-08-24 10:25:00,
2013-08-24 03:30:00,60.6,54.8,29.80,SE,135,0.0,0.0,81,0.00,CLR,,0.00,WeatherDisplay:10.37,2013-08-24 10:30:00,
2013-08-24 03:35:00,60.6,54.8,29.80,SE,135,0.0,0.0,81,0.00,CLR,,0.00,WeatherDisplay:10.37,2013-08-24 10:35:00,
2013-08-24 03:40:00,60.6,54.8,29.80,SE,135,0.0,0.0,81,0.00,CLR,,0.00,WeatherDisplay:10.37,2013-08-24 10:40:00,
2013-08-24 03:45:00,60.6,54.8,29.80,SE,135,0.0,0.0,81,0.00,CLR,,0.00,WeatherDisplay:10.37,2013-08-24 10:45:00,
2013-08-24 03:50:00,60.6,54.8,29.79,SE,135,0.0,0.0,81,0.00,CLR,,0.00,WeatherDisplay:10.37,2013-08-24 10:50:00,
2013-08-24 03:55:00,60.4,54.6,29.79,SE,135,0.0,0.0,81,0.00,CLR,,0.00,WeatherDisplay:10.37,2013-08-24 10:55:00,
2013-08-24 04:00:00,60.6,54.8,29.79,SE,135,0.0,0.0,81,0.00,CLR,,0.00,WeatherDisplay:10.37,2013-08-24 11:00:00,
2013-08-24 04:05:00,60.4,54.9,29.79,SE,135,0.0,0.0,82,0.00,CLR,,0.00,WeatherDisplay:10.37,2013-08-24 11:05:00,
2013-08-24 04:10:00,60.4,54.6,29.79,SE,135,0.0,0.0,81,0.00,CLR,,0.00,WeatherDisplay:10.37,2013-08-24 11:10:00,
2013-08-24 04:15:00,60.4,54.9,29.80,SE,135,0.0,0.0,82,0.00,CLR,,0.00,WeatherDisplay:10.37,2013-08-24 11:15:00,
2013-08-24 04:20:00,60.4,54.9,29.80,SE,135,0.0,0.0,82,0.00,CLR,,0.00,WeatherDisplay:10.37,2013-08-24 11:20:00,
2013-08-24 04:25:00,60.4,54.9,29.80,SE,135,0.0,0.0,82,0.00,CLR,,0.00,WeatherDisplay:10.37,2013-08-24 11:25:00,
2013-08-24 04:30:00,60.4,54.9,29.80,SE,135,0.0,0.0,82,0.00,CLR,,0.00,WeatherDisplay:10.37,2013-08-24 11:30:00,
2013-08-24 04:35:00,60.4,54.9,29.80,SE,135,0.0,0.0,82,0.00,CLR,,0.00,WeatherDisplay:10.37,2013-08-24 11:35:00,
2013-08-24 04:40:00,60.1,54.6,29.80,SE,135,0.0,0.0,82,0.00,CLR,,0.00,WeatherDisplay:10.37,2013-08-24 11:40:00,
2013-08-24 04:45:00,60.1,54.6,29.80,SE,135,0.0,0.0,82,0.00,CLR,,0.00,WeatherDisplay:10.37,2013-08-24 11:45:00,
2013-08-24 04:51:00,60.1,54.6,29.80,SE,135,0.0,0.0,82,0.00,CLR,,0.00,WeatherDisplay:10.37,2013-08-24 11:51:00,
2013-08-24 04:56:00,60.1,54.6,29.80,SE,135,0.0,0.0,82,0.00,CLR,,0.00,WeatherDisplay:10.37,2013-08-24 11:56:00,
2013-08-24 05:01:00,60.1,54.6,29.79,WSW,248,0.0,0.0,82,0.00,CLR,,0.00,WeatherDisplay:10.37,2013-08-24 12:01:00,
2013-08-24 05:06:00,60.1,54.9,29.79,WSW,248,0.0,0.0,83,0.00,CLR,,0.00,WeatherDisplay:10.37,2013-08-24 12:06:00,
2013-08-24 05:11:00,60.1,55.2,29.79,WSW,248,0.0,0.0,84,0.00,CLR,,0.00,WeatherDisplay:10.37,2013-08-24 12:11:00,
2013-08-24 05:16:00,60.1,55.2,29.79,WSW,248,0.0,0.0,84,0.00,CLR,,0.00,WeatherDisplay:10.37,2013-08-24 12:16:00,
2013-08-24 05:21:00,60.1,55.2,29.79,WSW,248,0.0,0.0,84,0.00,CLR,,0.00,WeatherDisplay:10.37,2013-08-24 12:21:00,
2013-08-24 05:26:00,59.9,55.1,29.79,SW,225,1.2,0.0,84,0.00,CLR,,0.00,WeatherDisplay:10.37,2013-08-24 12:26:00,
2013-08-24 05:31:00,59.7,55.2,29.79,SW,225,0.0,0.0,85,0.00,CLR,,0.00,WeatherDisplay:10.37,2013-08-24 12:31:00,
2013-08-24 05:36:00,59.5,55.0,29.79,SW,225,0.0,0.0,85,0.00,CLR,,0.00,WeatherDisplay:10.37,2013-08-24 12:36:00,
2013-08-24 05:41:00,59.5,55.0,29.79,SW,225,0.0,0.0,85,0.00,CLR,,0.00,WeatherDisplay:10.37,2013-08-24 12:41:00,
2013-08-24 05:46:00,59.5,55.0,29.79,SW,225,0.0,0.0,85,0.00,CLR,,0.00,WeatherDisplay:10.37,2013-08-24 12:46:00,
2013-08-24 05:51:00,59.4,54.8,29.79,SW,225,0.0,0.0,85,0.00,CLR,,0.00,WeatherDisplay:10.37,2013-08-24 12:51:00,
2013-08-24 05:56:00,59.2,55.0,29.79,SW,225,0.0,0.0,86,0.00,CLR,,0.00,WeatherDisplay:10.37,2013-08-24 12:56:00,
2013-08-24 06:01:00,59.2,55.0,29.79,SW,225,0.0,0.0,86,0.00,CLR,,0.00,WeatherDisplay:10.37,2013-08-24 13:01:00,
2013-08-24 06:06:00,59.2,55.3,29.78,SW,225,0.0,0.0,87,0.00,CLR,,0.00,WeatherDisplay:10.37,2013-08-24 13:06:00,
2013-08-24 06:11:00,59.0,55.1,29.79,SW,225,0.0,0.0,87,0.00,CLR,,0.00,WeatherDisplay:10.37,2013-08-24 13:11:00,
2013-08-24 06:16:00,58.8,55.0,29.79,SW,225,0.0,0.0,87,0.00,CLR,,0.00,WeatherDisplay:10.37,2013-08-24 13:16:00,
2013-08-24 06:21:00,58.8,55.0,29.78,SW,225,0.0,0.0,87,0.00,CLR,,0.00,WeatherDisplay:10.37,2013-08-24 13:21:00,
2013-08-24 06:26:00,58.8,55.0,29.79,SSE,158,0.0,0.0,87,0.00,CLR,,0.00,WeatherDisplay:10.37,2013-08-24 13:26:00,
2013-08-24 06:31:00,58.8,55.0,29.79,SSE,158,0.0,0.0,87,0.00,CLR,,0.00,WeatherDisplay:10.37,2013-08-24 13:31:00,
2013-08-24 06:36:00,58.8,55.0,29.79,SSE,158,0.0,0.0,87,0.00,CLR,,0.00,WeatherDisplay:10.37,2013-08-24 13:36:00,
2013-08-24 06:41:00,58.8,55.0,29.79,SSE,158,0.0,0.0,87,0.00,CLR,,0.00,WeatherDisplay:10.37,2013-08-24 13:41:00,
2013-08-24 06:46:00,58.8,55.3,29.79,SSE,158,0.0,0.0,88,0.00,CLR,,0.00,WeatherDisplay:10.37,2013-08-24 13:46:00,
2013-08-24 06:51:00,58.8,55.3,29.79,SSE,158,0.0,0.0,88,0.00,CLR,,0.00,WeatherDisplay:10.37,2013-08-24 13:51:00,
2013-08-24 06:56:00,58.8,55.3,29.79,SSE,158,0.0,0.0,88,0.00,CLR,,0.00,WeatherDisplay:10.37,2013-08-24 13:56:00,
2013-08-24 07:01:00,58.8,55.3,29.80,South,180,0.0,0.0,88,0.00,CLR,,0.00,WeatherDisplay:10.37,2013-08-24 14:01:00,
2013-08-24 07:06:00,58.8,55.3,29.80,South,180,0.0,0.0,88,0.00,CLR,,0.00,WeatherDisplay:10.37,2013-08-24 14:06:00,
2013-08-24 07:11:00,58.8,55.3,29.80,South,180,0.0,0.0,88,0.00,CLR,,0.00,WeatherDisplay:10.37,2013-08-24 14:11:00,
2013-08-24 07:16:00,58.8,55.3,29.80,South,180,0.0,0.0,88,0.00,CLR,,0.00,WeatherDisplay:10.37,2013-08-24 14:16:00,
2013-08-24 07:21:00,58.8,55.3,29.80,South,180,0.0,0.0,88,0.00,CLR,,0.00,WeatherDisplay:10.37,2013-08-24 14:21:00,
2013-08-24 07:26:00,58.8,55.3,29.80,South,180,0.0,0.0,88,0.00,CLR,,0.00,WeatherDisplay:10.37,2013-08-24 14:26:00,
2013-08-24 07:31:00,59.2,55.6,29.80,South,180,0.0,0.0,88,0.00,CLR,,0.00,WeatherDisplay:10.37,2013-08-24 14:31:00,
2013-08-24 07:36:00,59.4,55.8,29.80,South,180,0.0,0.0,88,0.00,CLR,,0.00,WeatherDisplay:10.37,2013-08-24 14:36:00,
2013-08-24 07:41:00,59.4,55.8,29.80,South,180,0.0,0.0,88,0.00,CLR,,0.00,WeatherDisplay:10.37,2013-08-24 14:41:00,
2013-08-24 07:46:00,59.5,56.0,29.80,SE,135,0.0,0.0,88,0.00,CLR,,0.00,WeatherDisplay:10.37,2013-08-24 14:46:00,
2013-08-24 07:51:00,59.7,56.2,29.80,SE,135,0.0,0.0,88,0.00,CLR,,0.00,WeatherDisplay:10.37,2013-08-24 14:51:00,
2013-08-24 07:56:00,59.7,56.2,29.80,SSE,158,0.0,0.0,88,0.00,CLR,,0.00,WeatherDisplay:10.37,2013-08-24 14:56:00,
2013-08-24 08:01:00,60.1,56.5,29.80,SSE,158,0.0,0.0,88,0.00,CLR,,0.00,WeatherDisplay:10.37,2013-08-24 15:01:00,
2013-08-24 08:06:00,60.3,56.7,29.80,SSE,158,0.0,0.0,88,0.00,CLR,,0.00,WeatherDisplay:10.37,2013-08-24 15:06:00,
2013-08-24 08:11:00,60.4,56.9,29.80,SSE,158,0.0,0.0,88,0.00,CLR,,0.00,WeatherDisplay:10.37,2013-08-24 15:11:00,
2013-08-24 08:16:00,60.6,57.0,29.80,SSE,158,0.0,0.0,88,0.00,CLR,,0.00,WeatherDisplay:10.37,2013-08-24 15:16:00,
2013-08-24 08:21:00,61.0,57.1,29.80,SSE,158,0.0,0.0,87,0.00,CLR,,0.00,WeatherDisplay:10.37,2013-08-24 15:21:00,
2013-08-24 08:26:00,61.0,57.1,29.80,SSE,158,0.0,0.0,87,0.00,CLR,,0.00,WeatherDisplay:10.37,2013-08-24 15:26:00,
2013-08-24 08:31:00,61.2,57.3,29.80,ENE,68,0.0,0.0,87,0.00,CLR,,0.00,WeatherDisplay:10.37,2013-08-24 15:31:00,
2013-08-24 08:36:00,61.2,56.9,29.80,SSE,158,0.0,0.0,86,0.00,CLR,,0.00,WeatherDisplay:10.37,2013-08-24 15:36:00,
2013-08-24 08:41:00,61.3,57.1,29.80,SE,135,0.0,0.0,86,0.00,CLR,,0.00,WeatherDisplay:10.37,2013-08-24 15:41:00,
2013-08-24 08:46:00,61.5,57.3,29.80,SE,135,0.0,0.0,86,0.00,CLR,,0.00,WeatherDisplay:10.37,2013-08-24 15:46:00,
2013-08-24 08:51:00,61.5,57.3,29.80,SE,135,0.0,0.0,86,0.00,CLR,,0.00,WeatherDisplay:10.37,2013-08-24 15:51:00,
2013-08-24 08:56:00,61.9,57.3,29.80,SSW,202,0.0,0.0,85,0.00,CLR,,0.00,WeatherDisplay:10.37,2013-08-24 15:56:00,
2013-08-24 09:01:00,62.2,57.7,29.80,SSE,158,0.0,0.0,85,0.00,CLR,,0.00,WeatherDisplay:10.37,2013-08-24 16:01:00,
2013-08-24 09:06:00,62.4,57.8,29.80,SSW,202,0.0,0.0,85,0.00,CLR,,0.00,WeatherDisplay:10.37,2013-08-24 16:06:00,
2013-08-24 09:11:00,62.4,57.5,29.80,SSW,202,0.0,0.0,84,0.00,CLR,,0.00,WeatherDisplay:10.37,2013-08-24 16:11:00,
2013-08-24 09:16:00,62.8,57.9,29.80,SSW,202,0.0,0.0,84,0.00,CLR,,0.00,WeatherDisplay:10.37,2013-08-24 16:16:00,
2013-08-24 09:21:00,63.0,57.7,29.80,SSE,158,0.0,0.0,83,0.00,CLR,,0.00,WeatherDisplay:10.37,2013-08-24 16:21:00,
2013-08-24 09:26:00,63.1,57.9,29.80,SSW,202,0.0,0.0,83,0.00,CLR,,0.00,WeatherDisplay:10.37,2013-08-24 16:26:00,
2013-08-24 09:31:00,63.1,57.6,29.80,SSW,202,0.0,0.0,82,0.00,CLR,,0.00,WeatherDisplay:10.37,2013-08-24 16:31:00,
2013-08-24 09:36:00,63.1,57.6,29.80,SW,225,0.0,0.0,82,0.00,CLR,,0.00,WeatherDisplay:10.37,2013-08-24 16:36:00,
2013-08-24 09:41:00,63.3,57.7,29.80,South,180,0.0,0.0,82,0.00,CLR,,0.00,WeatherDisplay:10.37,2013-08-24 16:41:00,
2013-08-24 09:46:00,63.7,57.7,29.80,SSW,202,0.0,0.0,81,0.00,CLR,,0.00,WeatherDisplay:10.37,2013-08-24 16:46:00,
2013-08-24 09:51:00,63.9,57.6,29.80,SSE,158,2.3,2.3,80,0.00,CLR,,0.00,WeatherDisplay:10.37,2013-08-24 16:51:00,
2013-08-24 09:56:00,64.0,58.1,29.80,SSE,158,0.0,0.0,81,0.00,CLR,,0.00,WeatherDisplay:10.37,2013-08-24 16:56:00,
2013-08-24 10:01:00,64.2,57.9,29.80,SE,135,5.8,5.8,80,0.00,CLR,,0.00,WeatherDisplay:10.37,2013-08-24 17:01:00,
2013-08-24 10:06:00,64.6,57.9,29.80,SE,135,1.2,1.2,79,0.00,CLR,,0.00,WeatherDisplay:10.37,2013-08-24 17:06:00,
2013-08-24 10:11:00,64.6,57.9,29.80,SE,135,0.0,0.0,79,0.00,CLR,,0.00,WeatherDisplay:10.37,2013-08-24 17:11:00,
2013-08-24 10:16:00,64.8,58.1,29.80,ESE,112,0.0,0.0,79,0.00,CLR,,0.00,WeatherDisplay:10.37,2013-08-24 17:16:00,
2013-08-24 10:21:00,64.9,58.3,29.80,ESE,112,0.0,0.0,79,0.00,CLR,,0.00,WeatherDisplay:10.37,2013-08-24 17:21:00,
2013-08-24 10:26:00,65.3,58.3,29.80,SSE,158,0.0,0.0,78,0.00,CLR,,0.00,WeatherDisplay:10.37,2013-08-24 17:26:00,
2013-08-24 10:31:00,65.7,58.3,29.81,SE,135,0.0,0.0,77,0.00,CLR,,0.00,WeatherDisplay:10.37,2013-08-24 17:31:00,
2013-08-24 10:36:00,65.5,58.1,29.81,South,180,0.0,0.0,77,0.00,CLR,,0.00,WeatherDisplay:10.37,2013-08-24 17:36:00,
2013-08-24 10:41:00,65.1,57.7,29.81,WSW,248,0.0,0.0,77,0.00,CLR,,0.00,WeatherDisplay:10.37,2013-08-24 17:41:00,
2013-08-24 10:46:00,64.6,57.2,29.81,SSW,202,0.0,0.0,77,0.00,CLR,,0.00,WeatherDisplay:10.37,2013-08-24 17:46:00,
2013-08-24 10:52:00,64.6,57.9,29.81,SW,225,0.0,0.0,79,0.00,CLR,,0.00,WeatherDisplay:10.37,2013-08-24 17:52:00,
2013-08-24 10:57:00,64.9,58.3,29.81,SW,225,0.0,0.0,79,0.00,CLR,,0.00,WeatherDisplay:10.37,2013-08-24 17:57:00,
2013-08-24 11:02:00,65.3,58.3,29.81,SSE,158,0.0,0.0,78,0.00,CLR,,0.00,WeatherDisplay:10.37,2013-08-24 18:02:00,
2013-08-24 11:07:00,65.3,57.9,29.81,SSE,158,0.0,0.0,77,0.00,CLR,,0.00,WeatherDisplay:10.37,2013-08-24 18:07:00,
2013-08-24 11:12:00,65.1,57.7,29.81,SSE,158,0.0,0.0,77,0.00,CLR,,0.00,WeatherDisplay:10.37,2013-08-24 18:12:00,
2013-08-24 11:17:00,64.9,57.2,29.80,SE,135,0.0,0.0,76,0.00,CLR,,0.00,WeatherDisplay:10.37,2013-08-24 18:17:00,
2013-08-24 11:22:00,64.9,57.6,29.80,South,180,0.0,0.0,77,0.00,CLR,,0.00,WeatherDisplay:10.37,2013-08-24 18:22:00,
2013-08-24 11:27:00,65.1,57.7,29.80,WSW,248,0.0,0.0,77,0.00,CLR,,0.00,WeatherDisplay:10.37,2013-08-24 18:27:00,
2013-08-24 11:32:00,65.1,57.7,29.80,WSW,248,0.0,0.0,77,0.00,CLR,,0.00,WeatherDisplay:10.37,2013-08-24 18:32:00,
2013-08-24 11:37:00,65.8,58.4,29.80,South,180,0.0,0.0,77,0.00,CLR,,0.00,WeatherDisplay:10.37,2013-08-24 18:37:00,
2013-08-24 11:42:00,66.7,58.6,29.80,SSW,202,0.0,0.0,75,0.00,CLR,,0.00,WeatherDisplay:10.37,2013-08-24 18:42:00,
2013-08-24 11:47:00,67.1,58.9,29.81,SSW,202,1.2,1.2,75,0.00,CLR,,0.00,WeatherDisplay:10.37,2013-08-24 18:47:00,
2013-08-24 11:52:00,67.5,58.5,29.81,West,270,0.0,0.0,73,0.00,CLR,,0.00,WeatherDisplay:10.37,2013-08-24 18:52:00,
2013-08-24 11:57:00,67.8,58.5,29.80,SSW,202,0.0,0.0,72,0.00,CLR,,0.00,WeatherDisplay:10.37,2013-08-24 18:57:00,
2013-08-24 12:02:00,68.2,59.2,29.80,SE,135,0.0,0.0,73,0.00,CLR,,0.00,WeatherDisplay:10.37,2013-08-24 19:02:00,
2013-08-24 12:07:00,68.5,59.2,29.80,SSE,158,2.5,0.0,72,0.00,CLR,,0.00,WeatherDisplay:10.37,2013-08-24 19:07:00,
2013-08-24 12:12:00,69.4,59.6,29.80,SE,135,2.3,2.3,71,0.00,CLR,,0.00,WeatherDisplay:10.37,2013-08-24 19:12:00,
2013-08-24 12:17:00,70.2,59.9,29.80,East,90,0.0,0.0,70,0.00,CLR,,0.00,WeatherDisplay:10.37,2013-08-24 19:17:00,
2013-08-24 12:22:00,70.9,59.8,29.80,WNW,292,0.0,0.0,68,0.00,CLR,,0.00,WeatherDisplay:10.37,2013-08-24 19:22:00,
2013-08-24 12:27:00,70.9,59.4,29.80,SW,225,3.6,3.6,67,0.00,CLR,,0.00,WeatherDisplay:10.37,2013-08-24 19:27:00,
2013-08-24 12:32:00,70.5,58.6,29.80,SSW,202,0.0,0.0,66,0.00,CLR,,0.00,WeatherDisplay:10.37,2013-08-24 19:32:00,
2013-08-24 12:37:00,70.3,58.9,29.80,South,180,0.0,0.0,67,0.00,CLR,,0.00,WeatherDisplay:10.37,2013-08-24 19:37:00,
2013-08-24 12:42:00,70.3,58.9,29.80,SSW,202,0.0,0.0,67,0.00,CLR,,0.00,WeatherDisplay:10.37,2013-08-24 19:42:00,
2013-08-24 12:47:00,70.3,58.4,29.80,SE,135,2.3,0.0,66,0.00,CLR,,0.00,WeatherDisplay:10.37,2013-08-24 19:47:00,
2013-08-24 12:52:00,70.5,59.0,29.80,SE,135,0.0,0.0,67,0.00,CLR,,0.00,WeatherDisplay:10.37,2013-08-24 19:52:00,
2013-08-24 12:57:00,70.9,59.0,29.80,SSE,158,0.0,0.0,66,0.00,CLR,,0.00,WeatherDisplay:10.37,2013-08-24 19:57:00,
2013-08-24 13:02:00,70.9,59.0,29.80,SW,225,0.0,0.0,66,0.00,CLR,,0.00,WeatherDisplay:10.37,2013-08-24 20:02:00,
2013-08-24 13:07:00,70.9,59.0,29.80,South,180,0.0,0.0,66,0.00,CLR,,0.00,WeatherDisplay:10.37,2013-08-24 20:07:00,
2013-08-24 13:12:00,70.9,59.0,29.80,WSW,248,0.0,0.0,66,0.00,CLR,,0.00,WeatherDisplay:10.37,2013-08-24 20:12:00,
2013-08-24 13:17:00,70.9,58.5,29.80,SSE,158,0.0,0.0,65,0.00,CLR,,0.00,WeatherDisplay:10.37,2013-08-24 20:17:00,
2013-08-24 13:22:00,71.2,58.4,29.80,SW,225,0.0,0.0,64,0.00,CLR,,0.00,WeatherDisplay:10.37,2013-08-24 20:22:00,
2013-08-24 13:27:00,71.2,58.0,29.79,SW,225,0.0,0.0,63,0.00,CLR,,0.00,WeatherDisplay:10.37,2013-08-24 20:27:00,
2013-08-24 13:32:00,71.2,57.1,29.80,North,0,0.0,0.0,61,0.00,CLR,,0.00,WeatherDisplay:10.37,2013-08-24 20:32:00,
2013-08-24 13:37:00,70.7,56.6,29.79,North,0,0.0,0.0,61,0.00,CLR,,0.00,WeatherDisplay:10.37,2013-08-24 20:37:00,
2013-08-24 13:42:00,70.9,57.7,29.79,SE,135,0.0,0.0,63,0.00,CLR,,0.00,WeatherDisplay:10.37,2013-08-24 20:42:00,
2013-08-24 13:47:00,71.2,58.0,29.79,ESE,112,0.0,0.0,63,0.00,CLR,,0.00,WeatherDisplay:10.37,2013-08-24 20:47:00,
2013-08-24 13:52:00,71.2,57.5,29.79,ESE,112,0.0,0.0,62,0.00,CLR,,0.00,WeatherDisplay:10.37,2013-08-24 20:52:00,
2013-08-24 13:57:00,71.4,58.2,29.79,SE,135,0.0,0.0,63,0.00,CLR,,0.00,WeatherDisplay:10.37,2013-08-24 20:57:00,
2013-08-24 14:02:00,71.8,57.6,29.79,SE,135,0.0,0.0,61,0.00,CLR,,0.00,WeatherDisplay:10.37,2013-08-24 21:02:00,
2013-08-24 14:07:00,72.0,57.3,29.79,SW,225,0.0,0.0,60,0.00,CLR,,0.00,WeatherDisplay:10.37,2013-08-24 21:07:00,
2013-08-24 14:12:00,72.3,57.7,29.79,South,180,0.0,0.0,60,0.00,CLR,,0.00,WeatherDisplay:10.37,2013-08-24 21:12:00,
2013-08-24 14:17:00,72.9,58.2,29.79,South,180,0.0,0.0,60,0.00,CLR,,0.00,WeatherDisplay:10.37,2013-08-24 21:17:00,
2013-08-24 14:22:00,73.6,59.3,29.79,SSE,158,1.6,1.6,61,0.00,CLR,,0.00,WeatherDisplay:10.37,2013-08-24 21:22:00,
2013-08-24 14:27:00,73.8,58.1,29.78,East,90,2.7,2.7,58,0.00,CLR,,0.00,WeatherDisplay:10.37,2013-08-24 21:27:00,
2013-08-24 14:32:00,74.1,58.4,29.78,SE,135,4.7,4.7,58,0.00,CLR,,0.00,WeatherDisplay:10.37,2013-08-24 21:32:00,
2013-08-24 14:37:00,74.7,58.9,29.78,SW,225,0.0,0.0,58,0.00,CLR,,0.00,WeatherDisplay:10.37,2013-08-24 21:37:00,
2013-08-24 14:42:00,74.8,58.6,29.78,ESE,112,0.9,0.9,57,0.00,CLR,,0.00,WeatherDisplay:10.37,2013-08-24 21:42:00,
2013-08-24 14:47:00,74.5,57.3,29.78,West,270,1.6,1.6,55,0.00,CLR,,0.00,WeatherDisplay:10.37,2013-08-24 21:47:00,
2013-08-24 14:52:00,74.3,56.1,29.78,WSW,248,0.0,0.0,53,0.00,CLR,,0.00,WeatherDisplay:10.37,2013-08-24 21:52:00,
2013-08-24 14:57:00,74.1,55.4,29.78,SW,225,2.3,2.3,52,0.00,CLR,,0.00,WeatherDisplay:10.37,2013-08-24 21:57:00,
2013-08-24 15:02:00,73.9,55.7,29.78,SSW,202,0.0,0.0,53,0.00,CLR,,0.00,WeatherDisplay:10.37,2013-08-24 22:02:00,
2013-08-24 15:07:00,74.5,56.2,29.78,East,90,0.0,0.0,53,0.00,CLR,,0.00,WeatherDisplay:10.37,2013-08-24 22:07:00,
2013-08-24 15:12:00,74.8,55.5,29.78,WNW,292,0.0,0.0,51,0.00,CLR,,0.00,WeatherDisplay:10.37,2013-08-24 22:12:00,
2013-08-24 15:17:00,74.8,54.9,29.78,WSW,248,6.9,6.9,50,0.00,CLR,,0.00,WeatherDisplay:10.37,2013-08-24 22:17:00,
2013-08-24 15:22:00,74.8,54.4,29.78,WNW,292,0.0,0.0,49,0.00,CLR,,0.00,WeatherDisplay:10.37,2013-08-24 22:22:00,
2013-08-24 15:27:00,74.8,54.4,29.77,WNW,292,0.0,0.0,49,0.00,CLR,,0.00,WeatherDisplay:10.37,2013-08-24 22:27:00,
2013-08-24 15:32:00,74.5,53.5,29.77,WNW,292,0.0,0.0,48,0.00,CLR,,0.00,WeatherDisplay:10.37,2013-08-24 22:32:00,
2013-08-24 15:37:00,74.1,52.6,29.77,WNW,292,0.0,0.0,47,0.00,CLR,,0.00,WeatherDisplay:10.37,2013-08-24 22:37:00,
2013-08-24 15:42:00,74.1,53.2,29.77,WNW,292,0.0,0.0,48,0.00,CLR,,0.00,WeatherDisplay:10.37,2013-08-24 22:42:00,
2013-08-24 15:47:00,73.9,52.4,29.77,NNE,22,0.0,0.0,47,0.00,CLR,,0.00,WeatherDisplay:10.37,2013-08-24 22:47:00,
2013-08-24 15:52:00,73.6,52.7,29.77,WNW,292,0.0,0.0,48,0.00,CLR,,0.00,WeatherDisplay:10.37,2013-08-24 22:52:00,
2013-08-24 15:57:00,73.2,52.3,29.77,NW,315,0.0,0.0,48,0.00,CLR,,0.00,WeatherDisplay:10.37,2013-08-24 22:57:00,
2013-08-24 16:02:00,73.0,52.7,29.77,NW,315,0.0,0.0,49,0.00,CLR,,0.00,WeatherDisplay:10.37,2013-08-24 23:02:00,
2013-08-24 16:07:00,73.0,53.8,29.77,NW,315,0.0,0.0,51,0.00,CLR,,0.00,WeatherDisplay:10.37,2013-08-24 23:07:00,
2013-08-24 16:12:00,73.0,53.3,29.77,NW,315,0.0,0.0,50,0.00,CLR,,0.00,WeatherDisplay:10.37,2013-08-24 23:12:00,
2013-08-24 16:17:00,72.9,52.6,29.77,NW,315,0.0,0.0,49,0.00,CLR,,0.00,WeatherDisplay:10.37,2013-08-24 23:17:00,
2013-08-24 16:22:00,72.3,53.7,29.77,NW,315,0.0,0.0,52,0.00,CLR,,0.00,WeatherDisplay:10.37,2013-08-24 23:22:00,
2013-08-24 16:27:00,72.1,53.0,29.77,NE,45,1.2,1.2,51,0.00,CLR,,0.00,WeatherDisplay:10.37,2013-08-24 23:27:00,
2013-08-24 16:32:00,71.8,53.2,29.77,NE,45,0.0,0.0,52,0.00,CLR,,0.00,WeatherDisplay:10.37,2013-08-24 23:32:00,
2013-08-24 16:37:00,71.4,53.4,29.77,NE,45,0.0,0.0,53,0.00,CLR,,0.00,WeatherDisplay:10.37,2013-08-24 23:37:00,
2013-08-24 16:42:00,71.4,53.9,29.77,NE,45,0.0,0.0,54,0.00,CLR,,0.00,WeatherDisplay:10.37,2013-08-24 23:42:00,
2013-08-24 16:47:00,71.2,53.7,29.77,NE,45,0.0,0.0,54,0.00,CLR,,0.00,WeatherDisplay:10.37,2013-08-24 23:47:00,
2013-08-24 16:52:00,71.8,53.7,29.77,NE,45,0.0,0.0,53,0.00,CLR,,0.00,WeatherDisplay:10.37,2013-08-24 23:52:00,
2013-08-24 16:57:00,72.1,53.5,29.77,NE,45,0.0,0.0,52,0.00,CLR,,0.00,WeatherDisplay:10.37,2013-08-24 23:57:00,
2013-08-24 17:02:00,72.7,53.5,29.77,SE,135,0.0,0.0,51,0.00,CLR,,0.00,WeatherDisplay:10.37,2013-08-25 00:02:00,
2013-08-24 17:07:00,73.0,53.8,29.77,SE,135,0.0,0.0,51,0.00,CLR,,0.00,WeatherDisplay:10.37,2013-08-25 00:07:00,
2013-08-24 17:12:00,73.2,54.0,29.76,SSE,158,0.0,0.0,51,0.00,CLR,,0.00,WeatherDisplay:10.37,2013-08-25 00:12:00,
2013-08-24 17:17:00,73.6,53.8,29.76,SSE,158,0.0,0.0,50,0.00,CLR,,0.00,WeatherDisplay:10.37,2013-08-25 00:17:00,
2013-08-24 17:22:00,74.1,53.7,29.76,West,270,0.0,0.0,49,0.00,CLR,,0.00,WeatherDisplay:10.37,2013-08-25 00:22:00,
2013-08-24 17:27:00,74.1,53.2,29.76,WSW,248,0.0,0.0,48,0.00,CLR,,0.00,WeatherDisplay:10.37,2013-08-25 00:27:00,
2013-08-24 17:32:00,74.1,53.7,29.76,SW,225,0.0,0.0,49,0.00,CLR,,0.00,WeatherDisplay:10.37,2013-08-25 00:32:00,
2013-08-24 17:37:00,73.9,53.6,29.76,SW,225,0.0,0.0,49,0.00,CLR,,0.00,WeatherDisplay:10.37,2013-08-25 00:37:00,
2013-08-24 17:42:00,73.9,54.1,29.76,SW,225,3.5,3.5,50,0.00,CLR,,0.00,WeatherDisplay:10.37,2013-08-25 00:42:00,
2013-08-24 17:47:00,73.9,53.0,29.76,WSW,248,0.0,0.0,48,0.00,CLR,,0.00,WeatherDisplay:10.37,2013-08-25 00:47:00,
2013-08-24 17:52:00,73.8,52.8,29.76,SSE,158,0.9,0.9,48,0.00,CLR,,0.00,WeatherDisplay:10.37,2013-08-25 00:52:00,
2013-08-24 17:57:00,73.2,52.3,29.76,SSE,158,0.0,0.0,48,0.00,CLR,,0.00,WeatherDisplay:10.37,2013-08-25 00:57:00,
2013-08-24 18:02:00,73.2,52.9,29.76,SSE,158,0.0,0.0,49,0.00,CLR,,0.00,WeatherDisplay:10.37,2013-08-25 01:02:00,
2013-08-24 18:07:00,73.0,52.2,29.76,WSW,248,0.0,0.0,48,0.00,CLR,,0.00,WeatherDisplay:10.37,2013-08-25 01:07:00,
2013-08-24 18:12:00,72.9,52.6,29.76,WSW,248,0.0,0.0,49,0.00,CLR,,0.00,WeatherDisplay:10.37,2013-08-25 01:12:00,
2013-08-24 18:17:00,72.7,52.4,29.75,SSW,202,1.3,1.3,49,0.00,CLR,,0.00,WeatherDisplay:10.37,2013-08-25 01:17:00,
2013-08-24 18:22:00,72.7,53.0,29.75,South,180,0.0,0.0,50,0.00,CLR,,0.00,WeatherDisplay:10.37,2013-08-25 01:22:00,
2013-08-24 18:27:00,73.0,52.7,29.75,South,180,0.0,0.0,49,0.00,CLR,,0.00,WeatherDisplay:10.37,2013-08-25 01:27:00,
2013-08-24 18:32:00,73.2,53.5,29.75,South,180,0.0,0.0,50,0.00,CLR,,0.00,WeatherDisplay:10.37,2013-08-25 01:32:00,
2013-08-24 18:37:00,73.9,53.0,29.75,SSW,202,0.0,0.0,48,0.00,CLR,,0.00,WeatherDisplay:10.37,2013-08-25 01:37:00,
2013-08-24 18:42:00,74.1,54.3,29.75,SSW,202,0.0,0.0,50,0.00,CLR,,0.00,WeatherDisplay:10.37,2013-08-25 01:42:00,
2013-08-24 18:47:00,74.1,53.7,29.75,North,0,0.0,0.0,49,0.00,CLR,,0.00,WeatherDisplay:10.37,2013-08-25 01:47:00,
2013-08-24 18:52:00,73.6,53.8,29.75,NNE,22,0.0,0.0,50,0.00,CLR,,0.00,WeatherDisplay:10.37,2013-08-25 01:52:00,
2013-08-24 18:57:00,73.2,53.5,29.75,WNW,292,0.0,0.0,50,0.00,CLR,,0.00,WeatherDisplay:10.37,2013-08-25 01:57:00,
2013-08-24 19:02:00,72.7,53.5,29.75,North,0,0.0,0.0,51,0.00,CLR,,0.00,WeatherDisplay:10.37,2013-08-25 02:02:00,
2013-08-24 19:07:00,72.0,53.4,29.75,North,0,0.0,0.0,52,0.00,CLR,,0.00,WeatherDisplay:10.37,2013-08-25 02:07:00,
2013-08-24 19:12:00,71.4,52.9,29.75,North,0,0.0,0.0,52,0.00,CLR,,0.00,WeatherDisplay:10.37,2013-08-25 02:12:00,
2013-08-24 19:17:00,71.2,53.2,29.76,North,0,0.0,0.0,53,0.00,CLR,,0.00,WeatherDisplay:10.37,2013-08-25 02:17:00,
2013-08-24 19:22:00,70.7,52.7,29.76,North,0,0.0,0.0,53,0.00,CLR,,0.00,WeatherDisplay:10.37,2013-08-25 02:22:00,
2013-08-24 19:27:00,70.3,52.9,29.76,North,0,0.0,0.0,54,0.00,CLR,,0.00,WeatherDisplay:10.37,2013-08-25 02:27:00,
2013-08-24 19:32:00,70.2,52.7,29.76,North,0,0.0,0.0,54,0.00,CLR,,0.00,WeatherDisplay:10.37,2013-08-25 02:32:00,
2013-08-24 19:37:00,69.6,52.7,29.76,North,0,0.0,0.0,55,0.00,CLR,,0.00,WeatherDisplay:10.37,2013-08-25 02:37:00,
2013-08-24 19:42:00,69.3,52.4,29.76,North,0,0.0,0.0,55,0.00,CLR,,0.00,WeatherDisplay:10.37,2013-08-25 02:42:00,
2013-08-24 19:47:00,68.9,53.0,29.76,North,0,0.0,0.0,57,0.00,CLR,,0.00,WeatherDisplay:10.37,2013-08-25 02:47:00,
2013-08-24 19:52:00,68.2,52.8,29.76,North,0,0.0,0.0,58,0.00,CLR,,0.00,WeatherDisplay:10.37,2013-08-25 02:52:00,
2013-08-24 19:57:00,67.8,53.4,29.76,North,0,0.0,0.0,60,0.00,CLR,,0.00,WeatherDisplay:10.37,2013-08-25 02:57:00,
2013-08-24 20:02:00,67.8,53.4,29.76,North,0,0.0,0.0,60,0.00,CLR,,0.00,WeatherDisplay:10.37,2013-08-25 03:02:00,
2013-08-24 20:07:00,67.1,53.2,29.76,North,0,0.0,0.0,61,0.00,CLR,,0.00,WeatherDisplay:10.37,2013-08-25 03:07:00,
2013-08-24 20:12:00,66.6,53.1,29.76,North,0,0.0,0.0,62,0.00,CLR,,0.00,WeatherDisplay:10.37,2013-08-25 03:12:00,
2013-08-24 20:17:00,66.2,53.2,29.77,North,0,0.0,0.0,63,0.00,CLR,,0.00,WeatherDisplay:10.37,2013-08-25 03:17:00,
2013-08-24 20:22:00,65.7,53.1,29.78,North,0,0.0,0.0,64,0.00,CLR,,0.00,WeatherDisplay:10.37,2013-08-25 03:22:00,
2013-08-24 20:27:00,65.3,53.2,29.78,North,0,0.0,0.0,65,0.00,CLR,,0.00,WeatherDisplay:10.37,2013-08-25 03:27:00,
2013-08-24 20:32:00,64.9,53.3,29.78,North,0,0.0,0.0,66,0.00,CLR,,0.00,WeatherDisplay:10.37,2013-08-25 03:32:00,
2013-08-24 20:37:00,64.2,52.6,29.77,North,0,0.0,0.0,66,0.00,CLR,,0.00,WeatherDisplay:10.37,2013-08-25 03:37:00,
2013-08-24 20:42:00,64.2,53.0,29.78,North,0,0.0,0.0,67,0.00,CLR,,0.00,WeatherDisplay:10.37,2013-08-25 03:42:00,
2013-08-24 20:47:00,63.7,52.5,29.78,North,0,0.0,0.0,67,0.00,CLR,,0.00,WeatherDisplay:10.37,2013-08-25 03:47:00,
2013-08-24 20:52:00,63.1,52.4,29.78,North,0,0.0,0.0,68,0.00,CLR,,0.00,WeatherDisplay:10.37,2013-08-25 03:52:00,
2013-08-24 20:57:00,63.0,52.6,29.78,North,0,0.0,0.0,69,0.00,CLR,,0.00,WeatherDisplay:10.37,2013-08-25 03:57:00,
2013-08-24 21:01:00,62.6,52.3,29.78,North,0,0.0,0.0,69,0.00,CLR,,0.00,WeatherDisplay:10.37,2013-08-25 04:01:00,
2013-08-24 21:03:00,62.4,52.1,29.78,North,0,0.0,0.0,69,0.00,CLR,,0.00,WeatherDisplay:10.37,2013-08-25 04:03:00,
2013-08-24 21:05:00,62.4,52.5,29.78,North,0,0.0,0.0,70,0.00,CLR,,0.00,WeatherDisplay:10.37,2013-08-25 04:05:00,
2013-08-24 21:08:00,62.4,52.5,29.78,North,0,0.0,0.0,70,0.00,CLR,,0.00,WeatherDisplay:10.37,2013-08-25 04:08:00,
2013-08-24 21:09:00,62.2,52.7,29.78,North,0,0.0,0.0,71,0.00,CLR,,0.00,WeatherDisplay:10.37,2013-08-25 04:09:00,
2013-08-24 21:14:00,61.9,52.4,29.78,North,0,0.0,0.0,71,0.00,CLR,,0.00,WeatherDisplay:10.37,2013-08-25 04:14:00,
2013-08-24 21:19:00,61.7,52.6,29.79,North,0,0.0,0.0,72,0.00,CLR,,0.00,WeatherDisplay:10.37,2013-08-25 04:19:00,
2013-08-24 21:24:00,61.3,52.2,29.79,North,0,0.0,0.0,72,0.00,CLR,,0.00,WeatherDisplay:10.37,2013-08-25 04:24:00,
2013-08-24 21:29:00,61.3,52.6,29.79,North,0,0.0,0.0,73,0.00,CLR,,0.00,WeatherDisplay:10.37,2013-08-25 04:29:00,
2013-08-24 21:34:00,61.0,52.3,29.79,North,0,0.0,0.0,73,0.00,CLR,,0.00,WeatherDisplay:10.37,2013-08-25 04:34:00,
2013-08-24 21:39:00,60.6,51.9,29.79,North,0,0.0,0.0,73,0.00,CLR,,0.00,WeatherDisplay:10.37,2013-08-25 04:39:00,
2013-08-24 21:44:00,60.4,52.1,29.79,North,0,0.0,0.0,74,0.00,CLR,,0.00,WeatherDisplay:10.37,2013-08-25 04:44:00,
2013-08-24 21:49:00,60.4,52.1,29.79,North,0,0.0,0.0,74,0.00,CLR,,0.00,WeatherDisplay:10.37,2013-08-25 04:49:00,
2013-08-24 21:54:00,60.1,52.1,29.79,North,0,0.0,0.0,75,0.00,CLR,,0.00,WeatherDisplay:10.37,2013-08-25 04:54:00,
2013-08-24 21:59:00,59.7,51.8,29.79,North,0,0.0,0.0,75,0.00,CLR,,0.00,WeatherDisplay:10.37,2013-08-25 04:59:00,
2013-08-24 22:04:00,59.7,51.8,29.79,North,0,0.0,0.0,75,0.00,CLR,,0.00,WeatherDisplay:10.37,2013-08-25 05:04:00,
2013-08-24 22:09:00,59.4,51.8,29.79,North,0,0.0,0.0,76,0.00,CLR,,0.00,WeatherDisplay:10.37,2013-08-25 05:09:00,
2013-08-24 22:14:00,59.2,52.0,29.79,North,0,0.0,0.0,77,0.00,CLR,,0.00,WeatherDisplay:10.37,2013-08-25 05:14:00,
2013-08-24 22:19:00,58.8,51.6,29.80,NNW,338,0.0,0.0,77,0.00,CLR,,0.00,WeatherDisplay:10.37,2013-08-25 05:19:00,
2013-08-24 22:24:00,58.8,51.6,29.80,WNW,292,0.0,0.0,77,0.00,CLR,,0.00,WeatherDisplay:10.37,2013-08-25 05:24:00,
2013-08-24 22:29:00,58.8,51.6,29.80,WNW,292,0.0,0.0,77,0.00,CLR,,0.00,WeatherDisplay:10.37,2013-08-25 05:29:00,
2013-08-24 22:34:00,58.8,52.0,29.81,WNW,292,0.0,0.0,78,0.00,CLR,,0.00,WeatherDisplay:10.37,2013-08-25 05:34:00,
2013-08-24 22:39:00,58.8,51.6,29.81,WNW,292,0.0,0.0,77,0.00,CLR,,0.00,WeatherDisplay:10.37,2013-08-25 05:39:00,
2013-08-24 22:44:00,58.8,52.0,29.81,WNW,292,0.0,0.0,78,0.00,CLR,,0.00,WeatherDisplay:10.37,2013-08-25 05:44:00,
2013-08-24 22:49:00,58.8,51.6,29.81,WNW,292,0.0,0.0,77,0.00,CLR,,0.00,WeatherDisplay:10.37,2013-08-25 05:49:00,
2013-08-24 22:54:00,58.8,51.6,29.81,WNW,292,0.0,0.0,77,0.00,CLR,,0.00,WeatherDisplay:10.37,2013-08-25 05:54:00,
2013-08-24 22:59:00,59.2,52.0,29.81,WNW,292,0.0,0.0,77,0.00,CLR,,0.00,WeatherDisplay:10.37,2013-08-25 05:59:00,
2013-08-24 23:04:00,59.4,52.1,29.81,WNW,292,0.0,0.0,77,0.00,CLR,,0.00,WeatherDisplay:10.37,2013-08-25 06:04:00,
2013-08-24 23:09:00,59.7,52.1,29.81,North,0,0.0,0.0,76,0.00,CLR,,0.00,WeatherDisplay:10.37,2013-08-25 06:09:00,
2013-08-24 23:14:00,59.9,52.3,29.81,North,0,0.0,0.0,76,0.00,CLR,,0.00,WeatherDisplay:10.37,2013-08-25 06:14:00,
2013-08-24 23:19:00,59.9,52.3,29.81,North,0,0.0,0.0,76,0.00,CLR,,0.00,WeatherDisplay:10.37,2013-08-25 06:19:00,
2013-08-24 23:24:00,60.1,52.5,29.81,North,0,0.0,0.0,76,0.00,CLR,,0.00,WeatherDisplay:10.37,2013-08-25 06:24:00,
2013-08-24 23:30:00,60.1,52.5,29.81,SSW,202,0.0,0.0,76,0.00,CLR,,0.00,WeatherDisplay:10.37,2013-08-25 06:30:00,
2013-08-24 23:35:00,60.1,52.5,29.81,SSW,202,0.0,0.0,76,0.00,CLR,,0.00,WeatherDisplay:10.37,2013-08-25 06:35:00,
2013-08-24 23:40:00,59.9,52.0,29.81,SW,225,0.0,0.0,75,0.00,CLR,,0.00,WeatherDisplay:10.37,2013-08-25 06:40:00,
2013-08-24 23:45:00,59.7,51.8,29.81,SW,225,0.0,0.0,75,0.00,CLR,,0.00,WeatherDisplay:10.37,2013-08-25 06:45:00,
2013-08-24 23:50:00,59.5,51.6,29.81,South,180,0.0,0.0,75,0.00,CLR,,0.00,WeatherDisplay:10.37,2013-08-25 06:50:00,
2013-08-24 23:55:00,59.5,51.6,29.81,South,180,0.0,0.0,75,0.00,CLR,,0.00,WeatherDisplay:10.37,2013-08-25 06:55:00,